Flight Track Log - Related Links

Times and Time Zones

All times are in EDT time to prevent confusion due to time zone crossing. See the ASQ5963 flight status page for this flight to view local times or setup timezone preferences in your user account.

Time Position Orientation Groundspeed Altitude Reporting Facility
EDT Latitude Longitude Course Direction KTS MPH feet Rate Location/Type
Sun 03:35:34 PM 46.8967 -96.8161 151° Southeast 144 166 2,600  Level Minneapolis Center
Sun 03:36:36 PM 46.8486 -96.8025 169° South 180 207 4,300 1,500 Climbing Minneapolis Center
Sun 03:37:38 PM 46.7931 -96.7631 154° Southeast 229 264 5,700 1,887 Climbing Minneapolis Center
Sun 03:38:00 PM 46.5119 -96.6536 152° Southeast  Level FlightAware
Sun 03:38:40 PM 46.7244 -96.7125 153° Southeast 260 299 8,200  Level Minneapolis Center
Sun 03:39:00 PM 46.4137 -96.5773 152° Southeast  Level FlightAware
Sun 03:39:41 PM 46.6522 -96.6600 153° Southeast 273 314 10,300  Level Minneapolis Center
Sun 03:40:00 PM 46.3158 -96.5003 151° Southeast  Level FlightAware
Sun 03:40:43 PM 46.5689 -96.5989 153° Southeast 317 365 11,000  Level Minneapolis Center
Sun 03:41:44 PM 46.4756 -96.5311 153° Southeast 352 405 12,600 1,463 Climbing Minneapolis Center
Sun 03:42:46 PM 46.3881 -96.4672 153° Southeast 363 418 14,000 1,415 Climbing Minneapolis Center
Sun 03:43:47 PM 46.2914 -96.3972 153° Southeast 369 425 15,500 1,317 Climbing Minneapolis Center
Sun 03:44:49 PM 46.1922 -96.3267 154° Southeast 381 438 16,700 1,065 Climbing Minneapolis Center
Sun 03:45:51 PM 46.1033 -96.2622 153° Southeast 390 449 17,700 878 Climbing Minneapolis Center
Sun 03:46:52 PM 46.0025 -96.1903 154° Southeast 403 464 18,500 878 Climbing Minneapolis Center
Sun 03:47:54 PM 45.8981 -96.1158 154° Southeast 415 478 19,500 1,122 Climbing Minneapolis Center
Sun 03:48:55 PM 45.7683 -96.0231 153° Southeast 431 496 20,800 1,171 Climbing Minneapolis Center
Sun 03:49:57 PM 45.6575 -95.9461 154° Southeast 440 506 21,900 1,016 Climbing Minneapolis Center
Sun 03:50:59 PM 45.5456 -95.8686 154° Southeast 445 512 22,900 1,415 Climbing Minneapolis Center
Sun 03:52:00 PM 45.4344 -95.7917 154° Southeast 446 513 24,800 1,854 Climbing Minneapolis Center
Sun 03:53:02 PM 45.3281 -95.7161 153° Southeast 433 498 26,700 1,610 Climbing Minneapolis Center
Sun 03:54:03 PM 45.2239 -95.6433 154° Southeast 422 486 28,100 1,171 Climbing Minneapolis Center
Sun 03:55:05 PM 45.1175 -95.5717 155° Southeast 422 486 29,100 1,016 Climbing Minneapolis Center
Sun 03:56:07 PM 45.0078 -95.4950 154° Southeast 433 498 30,200 1,122 Climbing Minneapolis Center
Sun 03:57:08 PM 44.8731 -95.4044 155° Southeast 440 506 31,400 1,122 Climbing Minneapolis Center
Sun 03:58:10 PM 44.7725 -95.3006 144° Southeast 449 517 32,500 774 Climbing Minneapolis Center
Sun 03:59:12 PM 44.7133 -95.1542 120° Southeast 432 497 33,000 244 Climbing Minneapolis Center
Sun 04:00:13 PM 44.6492 -94.9983 120° Southeast 447 514 33,000  Level Minneapolis Center
Sun 04:01:15 PM 44.5811 -94.8328 120° Southeast 474 545 33,000  Level Minneapolis Center
Sun 04:02:17 PM 44.5106 -94.6625 120° Southeast 494 568 33,000  Level Minneapolis Center
Sun 04:03:18 PM 44.4303 -94.4767 121° Southeast 509 586 33,000  Level Minneapolis Center
Sun 04:04:20 PM 44.3606 -94.3106 120° Southeast 506 582 33,000  Level Minneapolis Center
Sun 04:05:22 PM 44.2911 -94.1469 121° Southeast 496 571 33,000  Level Minneapolis Center
Sun 04:06:23 PM 44.2214 -93.9833 121° Southeast 496 571 33,000  Level Minneapolis Center
Sun 04:07:25 PM 44.1531 -93.8225 121° Southeast 491 565 33,000  Level Minneapolis Center
Sun 04:08:27 PM 44.0697 -93.6314 121° Southeast 488 562 33,000  Level Minneapolis Center
Sun 04:09:28 PM 44.0011 -93.4728 121° Southeast 487 560 33,000  Level Minneapolis Center
Sun 04:10:30 PM 43.9328 -93.3158 121° Southeast 483 556 33,000 -774 Level Minneapolis Center
Sun 04:11:32 PM 43.8631 -93.1603 122° Southeast 481 554 31,400 -1,790 Descending Minneapolis Center
Sun 04:12:34 PM 43.7869 -92.9881 121° Southeast 488 562 29,300 -2,000 Descending Minneapolis Center
Sun 04:13:35 PM 43.7150 -92.8244 121° Southeast 497 572 27,300 -1,951 Descending Minneapolis Center
Sun 04:14:37 PM 43.6367 -92.6489 122° Southeast 491 565 25,300 -1,113 Descending Minneapolis Center
Sun 04:15:39 PM 43.5769 -92.5144 121° Southeast 471 542 25,000 -145 Descending Minneapolis Center
Sun 04:16:41 PM 43.4956 -92.3364 122° Southeast 464 534 25,000  Level Minneapolis Center
Sun 04:17:43 PM 43.4253 -92.1831 122° Southeast 469 540 25,000  Level Minneapolis Center
Sun 04:18:44 PM 43.3558 -92.0283 122° Southeast 473 544 25,000  Level Minneapolis Center
Sun 04:19:46 PM 43.2839 -91.8739 123° Southeast 477 549 25,000  Level Minneapolis Center
Sun 04:20:48 PM 43.2122 -91.7175 122° Southeast 480 552 25,000  Level Minneapolis Center
Sun 04:21:50 PM 43.1486 -91.5572 119° Southeast 480 552 25,000  Level Minneapolis Center
Sun 04:22:52 PM 43.0919 -91.3908 115° Southeast 480 552 25,000  Level Minneapolis Center
Sun 04:23:54 PM 43.0236 -91.1922 115° Southeast 480 552 25,000  Level Minneapolis Center
Sun 04:24:55 PM 42.9656 -91.0278 116° Southeast 480 552 25,000  Level Minneapolis Center
Sun 04:25:57 PM 42.9078 -90.8647 116° Southeast 480 552 25,000  Level Minneapolis Center
Sun 04:26:59 PM 42.8506 -90.7025 116° Southeast 479 551 25,000  Level Minneapolis Center
Sun 04:28:01 PM 42.7933 -90.5408 116° Southeast 479 551 25,000 -194 Level Minneapolis Center
Sun 04:29:03 PM 42.7361 -90.3792 116° Southeast 478 550 24,600 -429 Descending Minneapolis Center
Sun 04:30:21 PM 42.6586 -90.1586 115° Southeast 471 542 24,000 -257 Descending Chicago Center
Sun 04:31:23 PM 42.6008 -89.9994 116° Southeast 472 543 24,000  Level Chicago Center
Sun 04:32:26 PM 42.5428 -89.8472 117° Southeast 464 534 24,000 -96 Level Chicago Center
Sun 04:33:28 PM 42.5153 -89.6594 101° East 430 495 23,800 -919 Descending Chicago Center
Sun 04:34:30 PM 42.5131 -89.5019 91° East 424 488 22,100 -1,742 Descending Chicago Center
Sun 04:35:32 PM 42.5108 -89.3519 91° East 409 471 20,200 -1,824 Descending Chicago Center
Sun 04:36:35 PM 42.5083 -89.2106 91° East 384 442 18,300 -1,584 Descending Chicago Center
Sun 04:37:37 PM 42.5075 -89.0650 90° East 386 444 16,900 -1,872 Descending Chicago Center
Sun 04:38:40 PM 42.4972 -88.9000 95° East 372 428 14,400 -2,112 Descending Chicago Center
Sun 04:39:42 PM 42.4603 -88.7800 113° Southeast 351 404 12,500 -1,645 Descending Chicago Center
Sun 04:40:44 PM 42.4272 -88.6661 111° Southeast 335 386 11,000 -720 Descending Chicago Center
Sun 04:41:47 PM 42.3961 -88.5639 112° Southeast 311 358 11,000 -336 Level Chicago Center
Sun 04:42:49 PM 42.3217 -88.5181 156° South 295 339 10,300 -919 Descending Chicago Center
Sun 04:43:51 PM 42.2433 -88.5117 177° South 284 327 9,100 -1,200 Descending Chicago Center
Sun 04:44:54 PM 42.1689 -88.4961 171° South 271 312 7,800 -1,296 Descending Chicago Center
Sun 04:45:56 PM 42.0872 -88.4533 159° South 261 300 6,400 -1,113 Descending Chicago Center
Sun 04:46:58 PM 42.0253 -88.4039 149° Southeast 249 287 5,500 -726 Descending Chicago Center
Sun 04:48:00 PM 41.9878 -88.3356 126° Southeast 217 250 4,900 -726 Descending Chicago Center
Sun 04:49:02 PM 41.9825 -88.2614 95° East 190 219 4,000 -435 Descending Chicago Center
Sun 04:50:04 PM 41.9825 -88.1931 90° East 185 213 4,000 -48 Level Chicago Center
Sun 04:51:07 PM 41.9825 -88.1231 90° East 186 214 3,900 -528 Descending Chicago Center
Sun 04:52:09 PM 41.9828 -88.0597 90° East 160 184 2,900 -871 Descending Chicago Center
Sun 04:53:11 PM 41.9833 -88.0047 89° East 149 171 2,100 -823 Descending Chicago Center
Sun 04:54:13 PM 41.9825 -87.9481 91° East 142 163 1,200 -581 Descending Chicago Center
Sun 04:55:15 PM 41.9836 -87.9022 88° East 140 161 900 -290 Descending Chicago Center

Login

Don't have an account? Register now (free) for customized features, flight alerts, and more!